createdAt,value
2022-09-13T00:00:55.692Z,19.75
2022-09-13T00:03:25.084Z,19.76
2022-09-13T00:05:53.195Z,19.77
2022-09-13T00:08:21.370Z,19.76
2022-09-13T00:10:49.344Z,19.75
2022-09-13T00:13:18.302Z,19.77
2022-09-13T00:15:48.145Z,19.73
2022-09-13T00:18:17.342Z,19.74
2022-09-13T00:20:47.012Z,19.69
2022-09-13T00:23:15.251Z,19.64
2022-09-13T00:25:43.217Z,19.62
2022-09-13T00:28:11.214Z,19.65
2022-09-13T00:30:39.119Z,19.55
2022-09-13T00:33:07.144Z,19.56
2022-09-13T00:35:35.719Z,19.57
2022-09-13T00:38:05.011Z,19.56
2022-09-13T00:40:37.688Z,19.55
2022-09-13T00:43:05.687Z,19.46
2022-09-13T00:45:33.708Z,19.43
2022-09-13T00:48:04.153Z,19.46
2022-09-13T00:50:36.146Z,19.45
2022-09-13T00:53:08.484Z,19.49
2022-09-13T00:55:40.453Z,19.52
2022-09-13T00:58:12.716Z,19.48
2022-09-13T01:00:42.154Z,19.44
2022-09-13T01:03:13.289Z,19.42
2022-09-13T01:05:44.919Z,19.43
2022-09-13T01:08:22.989Z,19.46
2022-09-13T01:10:52.982Z,19.37
2022-09-13T01:13:23.733Z,19.32
2022-09-13T01:15:52.550Z,19.17
2022-09-13T01:18:21.602Z,19.00
2022-09-13T01:21:17.241Z,18.66
2022-09-13T01:24:12.595Z,18.74
2022-09-13T01:27:02.581Z,18.91
2022-09-13T01:29:51.589Z,19.06
2022-09-13T01:32:29.731Z,19.13
2022-09-13T01:35:08.887Z,19.04
2022-09-13T01:37:50.821Z,18.93
2022-09-13T01:40:32.599Z,18.95
2022-09-13T01:43:21.119Z,19.00
2022-09-13T01:45:58.029Z,19.03
2022-09-13T01:48:38.140Z,19.08
2022-09-13T01:51:11.774Z,19.12
2022-09-13T01:53:53.703Z,19.13
2022-09-13T01:56:27.930Z,19.10
2022-09-13T01:58:59.103Z,19.04
2022-09-13T02:01:31.765Z,18.91
2022-09-13T02:04:06.012Z,18.89
2022-09-13T02:06:39.908Z,18.87
2022-09-13T02:09:12.891Z,18.73
2022-09-13T02:11:45.799Z,18.68
2022-09-13T02:14:17.859Z,18.71
2022-09-13T02:16:52.475Z,18.79
2022-09-13T02:19:28.258Z,18.85
2022-09-13T02:21:59.723Z,18.85
2022-09-13T02:24:31.775Z,18.89
2022-09-13T02:27:04.119Z,18.87
2022-09-13T02:29:34.324Z,18.86
2022-09-13T02:32:07.700Z,18.77
2022-09-13T02:34:41.292Z,18.74
2022-09-13T02:37:12.044Z,18.72
2022-09-13T02:39:47.125Z,18.76
2022-09-13T02:42:19.716Z,18.81
2022-09-13T02:44:50.971Z,18.77
2022-09-13T02:47:32.375Z,18.54
2022-09-13T02:50:11.789Z,18.59
2022-09-13T02:52:50.329Z,18.70
2022-09-13T02:55:25.889Z,18.73
2022-09-13T02:58:03.783Z,18.75
2022-09-13T03:00:32.452Z,18.69
2022-09-13T03:03:05.536Z,18.78
2022-09-13T03:05:34.864Z,18.67
2022-09-13T03:08:04.035Z,18.48
2022-09-13T03:10:41.453Z,18.39
2022-09-13T03:13:34.843Z,18.34
2022-09-13T03:16:17.328Z,18.31
2022-09-13T03:18:57.028Z,18.34
2022-09-13T03:21:45.194Z,18.43
2022-09-13T03:24:23.948Z,18.48
2022-09-13T03:27:07.788Z,18.55
2022-09-13T03:29:46.709Z,18.60
2022-09-13T03:32:25.883Z,18.59
2022-09-13T03:35:00.419Z,18.56
2022-09-13T03:37:36.200Z,18.57
2022-09-13T03:40:10.723Z,18.56
2022-09-13T03:42:46.468Z,18.58
2022-09-13T03:45:18.083Z,18.63
2022-09-13T03:47:48.613Z,18.69
2022-09-13T03:50:20.690Z,18.64
2022-09-13T03:52:54.855Z,18.39
2022-09-13T03:55:23.712Z,18.37
2022-09-13T03:57:51.607Z,18.32
2022-09-13T04:00:20.341Z,18.41
2022-09-13T04:02:48.256Z,18.45
2022-09-13T04:05:16.262Z,18.51
2022-09-13T04:07:44.184Z,18.58
2022-09-13T04:10:14.158Z,18.62
2022-09-13T04:12:42.395Z,18.57
2022-09-13T04:15:11.295Z,18.55
2022-09-13T04:17:39.274Z,18.45
2022-09-13T04:20:07.753Z,18.23
2022-09-13T04:22:35.654Z,17.99
2022-09-13T04:25:03.959Z,18.11
2022-09-13T04:27:33.394Z,18.38
2022-09-13T04:30:01.301Z,18.53
2022-09-13T04:32:29.745Z,18.47
2022-09-13T04:34:57.673Z,18.35
2022-09-13T04:37:25.601Z,18.32
2022-09-13T04:39:53.636Z,18.28
2022-09-13T04:42:21.629Z,18.31
2022-09-13T04:44:50.950Z,18.09
2022-09-13T04:47:19.131Z,17.96
2022-09-13T04:49:48.582Z,17.84
2022-09-13T04:52:16.503Z,17.96
2022-09-13T04:54:44.555Z,17.99
2022-09-13T04:57:12.730Z,18.02
2022-09-13T04:59:40.681Z,18.07
2022-09-13T05:02:10.305Z,18.13
2022-09-13T05:04:38.460Z,18.19
2022-09-13T05:07:06.347Z,18.26
2022-09-13T05:09:34.269Z,18.29
2022-09-13T05:12:02.188Z,18.33
2022-09-13T05:14:30.188Z,18.35
2022-09-13T05:16:58.108Z,18.40
2022-09-13T05:19:27.468Z,18.47
2022-09-13T05:21:55.395Z,18.53
2022-09-13T05:24:23.553Z,18.57
2022-09-13T05:26:51.447Z,18.56
2022-09-13T05:29:19.376Z,18.63
2022-09-13T05:31:47.348Z,18.67
2022-09-13T05:34:17.664Z,18.66
2022-09-13T05:36:51.668Z,18.67
2022-09-13T05:39:43.753Z,18.70
2022-09-13T05:42:10.948Z,18.72
2022-09-13T05:44:38.900Z,18.77
2022-09-13T05:47:07.146Z,18.76
2022-09-13T05:49:41.763Z,18.68
2022-09-13T05:52:19.347Z,18.48
2022-09-13T05:54:47.222Z,18.22
2022-09-13T05:57:15.118Z,17.98
2022-09-13T05:59:43.676Z,17.71
2022-09-13T06:02:11.904Z,17.53
2022-09-13T06:04:39.847Z,17.68
2022-09-13T06:07:07.775Z,17.97
2022-09-13T06:09:37.333Z,18.28
2022-09-13T06:12:05.685Z,18.44
2022-09-13T06:14:33.569Z,18.43
2022-09-13T06:17:01.512Z,18.55
2022-09-13T06:19:29.408Z,18.51
2022-09-13T06:21:57.323Z,18.42
2022-09-13T06:24:25.264Z,18.40
2022-09-13T06:26:54.889Z,18.27
2022-09-13T06:29:22.823Z,17.99
2022-09-13T06:31:50.785Z,17.79
2022-09-13T06:34:18.694Z,17.40
2022-09-13T06:36:46.695Z,17.21
2022-09-13T06:39:14.681Z,17.42
2022-09-13T06:41:42.583Z,17.72
2022-09-13T06:44:12.188Z,18.11
2022-09-13T06:46:40.304Z,18.37
2022-09-13T06:49:09.800Z,18.49
2022-09-13T06:51:38.200Z,18.62
2022-09-13T06:54:06.349Z,18.79
2022-09-13T06:56:35.840Z,18.91
2022-09-13T06:59:05.800Z,19.02
2022-09-13T07:01:37.824Z,19.05
2022-09-13T07:04:07.808Z,19.08
2022-09-13T07:06:38.296Z,19.09
2022-09-13T07:09:08.215Z,19.14
2022-09-13T07:11:38.616Z,19.14
2022-09-13T07:14:07.814Z,19.21
2022-09-13T07:16:38.997Z,19.30
2022-09-13T07:19:10.575Z,19.35
2022-09-13T07:21:38.635Z,19.22
2022-09-13T07:24:07.380Z,19.23
2022-09-13T07:26:35.611Z,19.36
2022-09-13T07:29:06.283Z,19.47
2022-09-13T07:31:35.910Z,19.55
2022-09-13T07:34:08.047Z,19.63
2022-09-13T07:36:37.747Z,19.65
2022-09-13T07:39:07.637Z,19.67
2022-09-13T07:41:38.583Z,19.71
2022-09-13T07:44:07.872Z,19.64
2022-09-13T07:46:43.519Z,19.65
2022-09-13T07:49:14.455Z,19.74
2022-09-13T07:51:44.264Z,19.75
2022-09-13T07:54:14.302Z,19.89
2022-09-13T07:56:42.930Z,19.99
2022-09-13T07:59:14.022Z,20.02
2022-09-13T08:01:43.417Z,19.96
2022-09-13T08:04:14.521Z,19.95
2022-09-13T08:06:43.474Z,19.77
2022-09-13T08:09:11.932Z,19.58
2022-09-13T08:11:41.206Z,19.43
2022-09-13T08:14:11.680Z,19.43
2022-09-13T08:16:40.477Z,19.43
2022-09-13T08:19:09.662Z,19.47
2022-09-13T08:21:41.576Z,19.62
2022-09-13T08:24:15.352Z,19.73
2022-09-13T08:26:43.316Z,19.75
2022-09-13T08:29:13.778Z,19.94
2022-09-13T08:31:42.491Z,20.20
2022-09-13T08:34:12.993Z,20.35
2022-09-13T08:36:42.398Z,20.47
2022-09-13T08:39:12.029Z,20.54
2022-09-13T08:42:02.665Z,20.59
2022-09-13T08:44:34.404Z,20.65
2022-09-13T08:47:19.792Z,20.81
2022-09-13T08:49:50.755Z,20.98
2022-09-13T08:52:30.629Z,21.03
2022-09-13T08:55:00.000Z,21.09
2022-09-13T08:57:37.249Z,21.17
2022-09-13T09:00:20.527Z,21.25
2022-09-13T09:02:59.323Z,21.30
2022-09-13T09:05:30.248Z,21.38
2022-09-13T09:08:02.794Z,21.51
2022-09-13T09:10:33.968Z,21.59
2022-09-13T09:13:07.552Z,21.69
2022-09-13T09:15:38.511Z,21.78
2022-09-13T09:18:12.196Z,21.87
2022-09-13T09:20:43.399Z,22.00
2022-09-13T09:23:21.368Z,22.09
2022-09-13T09:25:53.092Z,22.18
2022-09-13T09:28:23.094Z,22.30
2022-09-13T09:31:00.040Z,22.31
2022-09-13T09:33:47.888Z,22.35
2022-09-13T09:36:25.405Z,22.34
2022-09-13T09:38:54.763Z,22.34
2022-09-13T09:41:29.025Z,22.30
2022-09-13T09:44:02.788Z,22.29
2022-09-13T09:46:34.690Z,22.30
2022-09-13T09:49:28.836Z,22.37
2022-09-13T09:51:58.446Z,22.46
2022-09-13T09:54:31.494Z,22.59
2022-09-13T09:57:00.014Z,22.64
2022-09-13T09:59:31.256Z,22.68
2022-09-13T10:02:00.274Z,22.79
2022-09-13T10:04:29.678Z,22.90
2022-09-13T10:07:20.388Z,23.04
2022-09-13T10:10:00.035Z,23.07
2022-09-13T10:12:29.952Z,23.26
2022-09-13T10:15:06.918Z,23.44
2022-09-13T10:17:34.863Z,23.57
2022-09-13T10:20:05.535Z,23.60
2022-09-13T10:22:34.606Z,23.63
2022-09-13T10:25:22.598Z,23.71
2022-09-13T10:27:54.294Z,23.85
2022-09-13T10:30:34.182Z,23.88
2022-09-13T10:33:03.958Z,23.71
2022-09-13T10:35:32.684Z,23.62
2022-09-13T10:38:00.706Z,23.63
2022-09-13T10:40:33.686Z,23.60
2022-09-13T10:43:04.953Z,23.56
2022-09-13T10:45:33.250Z,23.59
2022-09-13T10:48:07.059Z,23.65
2022-09-13T10:50:36.291Z,23.67
2022-09-13T10:53:05.627Z,23.71
2022-09-13T10:55:36.843Z,23.76
2022-09-13T10:58:24.564Z,23.73
2022-09-13T11:01:29.160Z,23.75
2022-09-13T11:04:32.549Z,23.77
2022-09-13T11:07:15.660Z,23.79
2022-09-13T11:09:53.403Z,23.85
2022-09-13T11:12:30.270Z,23.94
2022-09-13T11:15:06.381Z,24.09
2022-09-13T11:17:59.195Z,24.16
2022-09-13T11:20:39.515Z,24.15
2022-09-13T11:23:29.756Z,24.08
2022-09-13T11:26:08.520Z,24.17
2022-09-13T11:28:50.305Z,24.18
2022-09-13T11:31:33.321Z,24.26
2022-09-13T11:34:18.115Z,24.27
2022-09-13T11:37:10.795Z,24.16
2022-09-13T11:39:40.388Z,24.32
2022-09-13T11:42:23.263Z,24.46
2022-09-13T11:45:24.105Z,24.46
2022-09-13T11:48:08.771Z,24.49
2022-09-13T11:50:45.737Z,24.61
2022-09-13T11:53:38.469Z,24.73
2022-09-13T11:56:10.703Z,24.71
2022-09-13T11:58:45.702Z,24.61
2022-09-13T12:01:21.706Z,24.67
2022-09-13T12:03:57.810Z,24.66
2022-09-13T12:06:30.191Z,24.67
2022-09-13T12:09:03.949Z,24.70
2022-09-13T12:11:35.899Z,24.73
2022-09-13T12:14:07.749Z,24.81
2022-09-13T12:16:42.086Z,24.87
2022-09-13T12:19:17.874Z,24.94
2022-09-13T12:21:48.290Z,25.00
2022-09-13T12:24:19.723Z,25.08
2022-09-13T12:26:53.692Z,25.10
2022-09-13T12:29:29.559Z,25.16
2022-09-13T12:32:03.403Z,25.21
2022-09-13T12:34:40.389Z,25.19
2022-09-13T12:37:20.063Z,25.17
2022-09-13T12:40:15.612Z,24.99
2022-09-13T12:43:18.386Z,24.90
2022-09-13T12:46:16.675Z,24.84
2022-09-13T12:48:58.924Z,24.90
2022-09-13T12:51:43.371Z,25.04
2022-09-13T12:54:37.466Z,25.22
2022-09-13T12:57:19.471Z,25.36
2022-09-13T13:00:19.030Z,25.60
2022-09-13T13:02:55.085Z,25.69
2022-09-13T13:05:30.776Z,25.66
2022-09-13T13:08:02.470Z,25.51
2022-09-13T13:10:33.757Z,25.36
2022-09-13T13:13:13.377Z,25.36
2022-09-13T13:16:05.704Z,25.37
2022-09-13T13:18:46.145Z,25.50
2022-09-13T13:21:31.985Z,25.51
2022-09-13T13:24:37.908Z,25.45
2022-09-13T13:27:34.156Z,25.45
2022-09-13T13:30:40.276Z,25.48
2022-09-13T13:33:16.224Z,25.52
2022-09-13T13:35:44.755Z,25.60
2022-09-13T13:38:32.656Z,25.69
2022-09-13T13:41:12.767Z,25.72
2022-09-13T13:43:40.948Z,25.69
2022-09-13T13:46:29.128Z,25.67
2022-09-13T13:48:57.535Z,25.71
2022-09-13T13:51:27.844Z,25.68
2022-09-13T13:54:31.341Z,25.56
2022-09-13T13:56:59.333Z,25.51
2022-09-13T13:59:32.717Z,25.53
2022-09-13T14:02:01.990Z,25.58
2022-09-13T14:04:54.298Z,25.54
2022-09-13T14:07:37.931Z,25.49
2022-09-13T14:10:13.275Z,25.51
2022-09-13T14:12:57.715Z,25.51
2022-09-13T14:15:47.573Z,25.56
2022-09-13T14:18:36.228Z,25.62
2022-09-13T14:21:06.476Z,25.69
2022-09-13T14:23:35.320Z,25.73
2022-09-13T14:26:07.051Z,25.73
2022-09-13T14:28:35.802Z,25.70
2022-09-13T14:31:04.073Z,25.67
2022-09-13T14:33:35.159Z,25.64
2022-09-13T14:36:07.096Z,25.63
2022-09-13T14:38:36.626Z,25.61
2022-09-13T14:41:15.019Z,25.61
2022-09-13T14:43:43.615Z,25.63
2022-09-13T14:46:17.554Z,25.64
2022-09-13T14:48:51.663Z,25.62
2022-09-13T14:51:25.398Z,25.62
2022-09-13T14:53:58.204Z,25.62
2022-09-13T14:56:37.083Z,25.58
2022-09-13T14:59:07.948Z,25.54
2022-09-13T15:01:37.069Z,25.59
2022-09-13T15:04:07.607Z,25.60
2022-09-13T15:06:39.157Z,25.70
2022-09-13T15:09:27.505Z,25.85
2022-09-13T15:12:23.141Z,25.86
2022-09-13T15:14:51.063Z,25.84
2022-09-13T15:17:18.982Z,25.90
2022-09-13T15:19:51.152Z,26.04
2022-09-13T15:22:26.430Z,26.11
2022-09-13T15:24:56.598Z,26.19
2022-09-13T15:27:29.294Z,26.27
2022-09-13T15:30:00.419Z,26.37
2022-09-13T15:32:34.897Z,26.30
2022-09-13T15:35:03.797Z,26.30
2022-09-13T15:37:37.502Z,26.21
2022-09-13T15:40:22.216Z,26.17
2022-09-13T15:42:52.838Z,26.30
2022-09-13T15:45:22.964Z,26.52
2022-09-13T15:47:52.991Z,26.45
2022-09-13T15:50:23.984Z,26.26
2022-09-13T15:52:51.895Z,26.12
2022-09-13T15:55:19.865Z,26.01
2022-09-13T15:57:48.562Z,25.91
2022-09-13T16:00:21.241Z,25.82
2022-09-13T16:02:49.707Z,25.74
2022-09-13T16:05:17.984Z,25.68
2022-09-13T16:07:46.648Z,25.62
2022-09-13T16:10:17.369Z,25.57
2022-09-13T16:12:46.900Z,25.52
2022-09-13T16:15:15.614Z,25.50
2022-09-13T16:17:45.049Z,25.48
2022-09-13T16:20:15.296Z,25.36
2022-09-13T16:22:43.587Z,25.35
2022-09-13T18:14:14.751Z,24.00
2022-09-13T18:16:43.167Z,24.03
2022-09-13T18:19:12.172Z,24.05
2022-09-13T18:21:40.258Z,24.07
2022-09-13T18:24:08.270Z,24.07
2022-09-13T18:26:36.982Z,24.07
2022-09-13T18:29:07.002Z,24.03
2022-09-13T18:34:35.537Z,23.88
2022-09-13T18:37:03.537Z,23.79
2022-09-13T18:39:31.682Z,23.70
2022-09-13T18:42:01.096Z,23.58
2022-09-13T18:44:30.386Z,23.54
2022-09-13T18:46:58.387Z,23.53
2022-09-13T18:49:26.310Z,23.53
2022-09-13T18:51:55.624Z,23.52
2022-09-13T18:54:23.575Z,23.47
2022-09-13T18:56:51.698Z,23.44
2022-09-13T18:59:19.712Z,23.44
2022-09-13T19:01:48.856Z,23.43
2022-09-13T19:04:18.502Z,23.44
2022-09-13T19:06:48.470Z,23.43
2022-09-13T19:09:20.650Z,23.43
2022-09-13T19:11:50.785Z,23.43
2022-09-13T19:14:21.647Z,23.45
2022-09-13T19:16:50.547Z,23.46
2022-09-13T19:19:18.520Z,23.45
2022-09-13T19:21:46.609Z,23.43
2022-09-13T19:24:18.226Z,23.40
2022-09-13T19:26:50.725Z,23.38
2022-09-13T19:29:22.877Z,23.37
2022-09-13T19:31:53.097Z,23.35
2022-09-13T19:34:23.506Z,23.32
2022-09-13T19:36:57.565Z,23.30
2022-09-13T19:39:29.627Z,23.30
2022-09-13T19:42:00.836Z,23.33
2022-09-13T19:44:28.914Z,23.29
2022-09-13T19:47:36.168Z,23.27
2022-09-13T19:49:44.791Z,23.20
2022-09-13T19:52:12.729Z,23.10
2022-09-13T19:54:40.674Z,23.06
2022-09-13T19:57:10.104Z,23.00
2022-09-13T19:59:38.058Z,22.94
2022-09-13T20:02:06.747Z,22.90
2022-09-13T20:04:34.866Z,22.85
2022-09-13T20:07:02.840Z,22.81
2022-09-13T20:09:31.853Z,22.75
2022-09-13T20:12:00.734Z,22.68
2022-09-13T20:14:30.111Z,22.67
2022-09-13T20:16:58.685Z,22.65
2022-09-13T20:19:46.342Z,22.64
2022-09-13T20:22:14.749Z,22.75
2022-09-13T20:24:43.287Z,22.88
2022-09-13T20:27:11.525Z,22.96
2022-09-13T20:29:41.544Z,22.89
2022-09-13T20:32:09.544Z,22.73
2022-09-13T20:34:37.836Z,22.65
2022-09-13T20:37:05.906Z,22.66
2022-09-13T20:39:33.832Z,22.59
2022-09-13T20:42:01.950Z,22.52
2022-09-13T20:44:29.875Z,22.48
2022-09-13T20:46:59.218Z,22.46
2022-09-13T20:49:28.468Z,22.41
2022-09-13T20:51:56.623Z,22.33
2022-09-13T20:54:24.506Z,22.24
2022-09-13T20:56:52.457Z,22.19
2022-09-13T20:59:21.243Z,22.16
2022-09-13T21:01:49.789Z,22.17
2022-09-13T21:04:19.206Z,22.17
2022-09-13T21:07:01.050Z,22.18
2022-09-13T21:09:29.021Z,22.19
2022-09-13T21:11:56.934Z,22.15
2022-09-13T21:14:24.835Z,22.10
2022-09-13T21:16:52.901Z,22.11
2022-09-13T21:19:22.423Z,22.03
2022-09-13T21:21:50.488Z,22.07
2022-09-13T21:24:18.635Z,22.09
2022-09-13T21:26:46.557Z,22.10
2022-09-13T21:29:14.533Z,21.97
2022-09-13T21:31:42.479Z,21.92
2022-09-13T21:34:15.204Z,21.91
2022-09-13T21:36:45.917Z,21.72
2022-09-13T21:39:14.304Z,21.56
2022-09-13T21:41:42.405Z,21.46
2022-09-13T21:44:10.498Z,21.45
2022-09-13T21:46:40.008Z,21.44
2022-09-13T21:49:10.714Z,21.48
2022-09-13T21:51:40.835Z,21.36
2022-09-13T21:54:12.210Z,21.37
2022-09-13T21:56:42.226Z,21.43
2022-09-13T21:59:14.470Z,21.48
2022-09-13T22:01:44.394Z,21.62
2022-09-13T22:04:16.673Z,21.70
2022-09-13T22:06:45.052Z,21.77
2022-09-13T22:09:15.521Z,21.82
2022-09-13T22:11:45.303Z,21.74
2022-09-13T22:14:14.619Z,21.69
2022-09-13T22:16:44.148Z,21.67
2022-09-13T22:19:14.429Z,21.73
2022-09-13T22:21:44.186Z,21.76
2022-09-13T22:24:17.533Z,21.77
2022-09-13T22:26:47.375Z,21.64
2022-09-13T22:29:16.162Z,21.64
2022-09-13T22:31:45.845Z,21.69
2022-09-13T22:34:15.879Z,21.72
2022-09-13T22:36:44.441Z,21.72
2022-09-13T22:39:13.936Z,21.70
2022-09-13T22:41:43.561Z,21.66
2022-09-13T22:44:12.001Z,21.63
2022-09-13T22:46:42.516Z,21.68
2022-09-13T22:49:13.495Z,21.66
2022-09-13T22:51:41.807Z,21.68
2022-09-13T22:54:09.745Z,21.70
2022-09-13T22:56:38.659Z,21.71
2022-09-13T22:59:09.803Z,21.77
2022-09-13T23:01:38.338Z,21.83
2022-09-13T23:04:06.896Z,21.88
2022-09-13T23:06:35.771Z,21.94
2022-09-13T23:09:07.108Z,21.90
2022-09-13T23:11:36.900Z,21.84
2022-09-13T23:14:08.349Z,21.88
2022-09-13T23:16:38.744Z,21.79
2022-09-13T23:19:06.855Z,21.81
2022-09-13T23:21:37.620Z,21.90
2022-09-13T23:24:07.492Z,21.94
2022-09-13T23:26:35.803Z,21.95
2022-09-13T23:29:05.696Z,21.91
2022-09-13T23:31:38.908Z,21.88
2022-09-13T23:34:08.479Z,21.87
2022-09-13T23:36:38.889Z,21.83
2022-09-13T23:39:09.620Z,21.84
2022-09-13T23:41:38.284Z,21.85
2022-09-13T23:44:06.283Z,21.88
2022-09-13T23:46:35.607Z,21.89
2022-09-13T23:49:03.574Z,21.87
2022-09-13T23:51:31.634Z,21.87
2022-09-13T23:54:01.062Z,21.83
2022-09-13T23:56:31.065Z,21.82
2022-09-13T23:59:01.134Z,21.81
